Time;durP1;ratioP1;P1;durP2;ratioP2;P2;SDS_P1;SDS_P2;PMS_P1;PMS_P2;Temp;Humidity;BMP_temperature;BMP_pressure;BME280_temperature;BME280_humidity;BME280_pressure;Samples;Min_cycle;Max_cycle;Signal;HPM_P1;HPM_P2
2023/02/07 00:00:43;;;;;;;7.28;2.80;;;4.20;76.90;;;;;;5043761;28;20193;-64
2023/02/07 00:03:09;;;;;;;5.47;2.10;;;4.30;76.40;;;;;;5042870;28;20057;-64
2023/02/07 00:05:35;;;;;;;4.95;3.00;;;4.30;76.40;;;;;;5048369;28;20036;-65
2023/02/07 00:08:05;;;;;;;6.70;3.03;;;4.30;76.40;;;;;;5051213;28;20563;-64
2023/02/07 00:10:32;;;;;;;4.47;2.55;;;4.30;76.40;;;;;;5047760;28;20543;-65
2023/02/07 00:12:57;;;;;;;6.65;3.17;;;4.30;76.50;;;;;;5045781;28;20493;-64
2023/02/07 00:15:23;;;;;;;8.18;3.55;;;4.40;76.50;;;;;;5079007;28;20028;-67
2023/02/07 00:17:49;;;;;;;4.43;2.97;;;4.30;76.40;;;;;;5050548;28;20049;-68
2023/02/07 00:20:16;;;;;;;2.90;2.58;;;4.30;76.50;;;;;;5049354;28;20384;-67
2023/02/07 00:22:45;;;;;;;4.88;3.45;;;4.30;76.50;;;;;;5049967;28;20029;-68
2023/02/07 00:25:11;;;;;;;4.72;3.47;;;4.30;76.60;;;;;;5066497;28;20025;-67
2023/02/07 00:27:37;;;;;;;7.55;3.60;;;4.30;76.60;;;;;;5048782;28;20040;-64
2023/02/07 00:30:04;;;;;;;8.52;3.53;;;4.20;76.60;;;;;;5053045;28;20444;-64
2023/02/07 00:32:31;;;;;;;6.35;2.88;;;4.20;76.70;;;;;;5047024;28;20037;-64
2023/02/07 00:34:57;;;;;;;8.70;3.40;;;4.20;76.70;;;;;;5051884;28;20472;-64
2023/02/07 00:37:23;;;;;;;7.13;3.67;;;4.20;76.80;;;;;;5047420;28;20040;-63
2023/02/07 00:39:48;;;;;;;8.32;3.42;;;4.20;76.90;;;;;;5064466;28;20035;-67
2023/02/07 00:42:14;;;;;;;5.53;3.67;;;4.20;76.90;;;;;;5046398;28;20554;-67
2023/02/07 00:44:40;;;;;;;5.78;3.75;;;4.20;76.90;;;;;;5062109;28;20056;-66
2023/02/07 00:47:06;;;;;;;10.32;3.88;;;4.20;76.90;;;;;;5040461;28;20534;-66
2023/02/07 00:49:31;;;;;;;6.95;3.35;;;4.10;76.90;;;;;;5044471;28;20032;-66
2023/02/07 00:51:57;;;;;;;6.97;4.47;;;4.10;76.90;;;;;;5037687;28;20758;-66
2023/02/07 00:54:23;;;;;;;8.18;3.83;;;4.10;76.90;;;;;;5048377;28;20029;-66
2023/02/07 00:56:48;;;;;;;9.18;4.70;;;4.00;76.90;;;;;;5037957;28;20017;-67
2023/02/07 00:59:14;;;;;;;5.93;3.53;;;4.00;77.00;;;;;;5048116;28;20036;-67
2023/02/07 01:01:40;;;;;;;6.00;3.53;;;4.00;77.10;;;;;;5049966;28;20451;-67
2023/02/07 01:04:05;;;;;;;11.77;4.55;;;4.00;77.10;;;;;;5046466;28;20037;-67
2023/02/07 01:06:33;;;;;;;4.43;3.78;;;4.00;77.10;;;;;;5039003;28;20029;-67
2023/02/07 01:09:00;;;;;;;12.88;4.82;;;3.90;77.10;;;;;;5049832;28;20031;-65
2023/02/07 01:11:26;;;;;;;15.88;4.22;;;3.80;77.10;;;;;;5041582;28;20488;-64
2023/02/07 01:13:52;;;;;;;6.65;4.28;;;3.80;77.20;;;;;;5046126;28;20025;-66
2023/02/07 01:16:35;;;;;;;8.30;4.43;;;3.80;77.20;;;;;;5048430;28;20098;-66
2023/02/07 01:19:04;;;;;;;6.00;3.63;;;3.80;77.10;;;;;;5042950;28;20106;-66
2023/02/07 01:21:29;;;;;;;10.90;4.60;;;3.70;77.20;;;;;;5046093;28;20021;-66
2023/02/07 01:23:55;;;;;;;8.77;5.00;;;3.70;77.10;;;;;;5051196;28;20037;-67
2023/02/07 01:26:25;;;;;;;7.55;4.35;;;3.60;77.10;;;;;;5050126;28;20682;-64
2023/02/07 01:28:53;;;;;;;6.40;4.38;;;3.60;77.10;;;;;;5038603;28;20021;-61
2023/02/07 01:31:20;;;;;;;7.35;4.25;;;3.60;77.10;;;;;;5048548;28;20071;-62
2023/02/07 01:33:47;;;;;;;15.73;5.68;;;3.50;77.00;;;;;;5041241;28;20460;-62
2023/02/07 01:36:15;;;;;;;8.32;5.10;;;3.50;77.10;;;;;;5048587;28;20032;-64
2023/02/07 01:38:41;;;;;;;8.10;4.60;;;3.50;77.10;;;;;;5038344;28;20499;-65
2023/02/07 01:41:08;;;;;;;9.75;5.55;;;3.50;77.00;;;;;;5049665;28;20052;-66
2023/02/07 01:43:34;;;;;;;8.93;4.75;;;3.40;77.00;;;;;;5063485;28;20028;-65
2023/02/07 01:46:00;;;;;;;11.40;4.40;;;3.40;76.90;;;;;;5046418;28;20503;-65
2023/02/07 01:48:31;;;;;;;12.00;5.80;;;3.40;76.80;;;;;;5048666;28;20159;-65
2023/02/07 01:51:02;;;;;;;8.05;4.55;;;3.30;76.90;;;;;;5046912;28;20017;-64
2023/02/07 01:53:29;;;;;;;11.48;4.25;;;3.30;77.00;;;;;;5048250;28;20025;-64
2023/02/07 01:56:00;;;;;;;12.32;4.75;;;3.30;77.10;;;;;;5051666;28;20036;-65
2023/02/07 01:58:27;;;;;;;6.57;4.43;;;3.20;77.00;;;;;;5048967;28;20476;-63
2023/02/07 02:00:53;;;;;;;6.45;4.30;;;3.20;77.10;;;;;;5049782;28;20034;-63
2023/02/07 02:03:19;;;;;;;8.80;4.90;;;3.20;77.10;;;;;;5052382;28;20480;-64
2023/02/07 02:05:46;;;;;;;11.60;4.97;;;3.20;77.00;;;;;;5045211;28;20091;-64
2023/02/07 02:08:11;;;;;;;5.00;3.38;;;3.20;77.00;;;;;;5049269;28;20103;-63
2023/02/07 02:10:55;;;;;;;4.30;3.67;;;3.10;76.90;;;;;;5044397;28;20801;-64
2023/02/07 02:13:47;;;;;;;6.22;4.10;;;3.10;77.00;;;;;;5047802;28;20047;-63
2023/02/07 02:16:43;;;;;;;4.53;3.58;;;3.10;76.90;;;;;;5046324;28;20028;-64
2023/02/07 02:19:42;;;;;;;5.40;4.18;;;3.10;77.00;;;;;;5049631;28;20128;-64
2023/02/07 02:22:27;;;;;;;15.10;5.25;;;3.00;76.90;;;;;;5050201;28;20421;-64
2023/02/07 02:24:58;;;;;;;6.88;4.35;;;3.00;77.00;;;;;;5048370;28;20048;-65
2023/02/07 02:27:40;;;;;;;10.95;4.47;;;3.00;77.10;;;;;;5045388;28;20029;-63
2023/02/07 02:30:05;;;;;;;10.35;5.07;;;3.00;77.00;;;;;;5046486;28;20078;-64
2023/02/07 02:32:49;;;;;;;6.95;4.57;;;3.00;77.00;;;;;;5045723;28;20530;-65
2023/02/07 02:35:41;;;;;;;9.10;5.53;;;3.00;76.90;;;;;;5041456;28;20104;-63
2023/02/07 02:38:32;;;;;;;11.18;4.75;;;3.00;77.00;;;;;;5048851;28;20023;-64
2023/02/07 02:41:30;;;;;;;11.13;5.32;;;3.10;77.10;;;;;;5048644;28;20013;-63
2023/02/07 02:43:57;;;;;;;8.45;4.32;;;3.00;77.10;;;;;;5051893;28;20083;-63
2023/02/07 02:46:36;;;;;;;7.55;4.68;;;3.00;77.30;;;;;;5048544;28;20376;-64
2023/02/07 02:49:03;;;;;;;9.05;4.53;;;3.10;77.30;;;;;;5041608;28;20198;-63
2023/02/07 02:51:30;;;;;;;6.90;4.03;;;3.00;77.20;;;;;;5050567;28;20029;-65
2023/02/07 02:53:58;;;;;;;9.60;5.45;;;3.10;77.20;;;;;;5045971;28;20092;-64
2023/02/07 02:56:48;;;;;;;8.52;5.05;;;3.00;77.20;;;;;;5049259;28;20068;-65
2023/02/07 02:59:17;;;;;;;10.75;4.82;;;3.00;77.10;;;;;;5042451;28;20041;-64
2023/02/07 03:01:57;;;;;;;6.72;4.90;;;3.00;77.10;;;;;;5041967;28;20373;-65
2023/02/07 03:04:31;;;;;;;15.68;5.22;;;2.90;77.00;;;;;;5048429;28;20525;-65
2023/02/07 03:07:09;;;;;;;7.85;4.80;;;2.90;77.10;;;;;;5055266;28;20515;-65
2023/02/07 03:09:51;;;;;;;10.93;5.47;;;2.90;77.20;;;;;;5064298;28;20564;-67
2023/02/07 03:12:31;;;;;;;;;;;2.90;77.10;;;;;;5047560;28;20456;-65
2023/02/07 03:15:12;;;;;;;6.18;3.78;;;2.80;77.10;;;;;;5054495;28;19984;-65
2023/02/07 03:17:53;;;;;;;7.10;4.40;;;2.70;77.10;;;;;;5054055;28;20041;-65
2023/02/07 03:20:26;;;;;;;7.25;4.50;;;2.70;77.00;;;;;;5043534;28;20025;-66
2023/02/07 03:22:55;;;;;;;10.27;4.72;;;2.70;77.00;;;;;;5047992;28;20028;-65
2023/02/07 03:25:23;;;;;;;9.50;4.85;;;2.70;77.10;;;;;;5041203;28;20013;-65
2023/02/07 03:27:49;;;;;;;9.85;4.95;;;2.60;77.20;;;;;;5052581;28;20024;-64
2023/02/07 03:30:19;;;;;;;6.85;4.60;;;2.60;77.30;;;;;;5059475;28;20026;-66
2023/02/07 03:32:50;;;;;;;8.40;4.88;;;2.60;77.30;;;;;;5047304;28;20054;-66
2023/02/07 03:35:28;;;;;;;7.43;4.63;;;2.60;77.30;;;;;;5050292;28;20029;-65
2023/02/07 03:37:59;;;;;;;9.43;4.68;;;2.60;77.30;;;;;;5052446;28;20024;-65
2023/02/07 03:40:29;;;;;;;11.25;4.35;;;2.50;77.20;;;;;;5046888;28;20078;-65
2023/02/07 03:43:01;;;;;;;7.03;3.67;;;2.50;77.10;;;;;;5049083;28;20033;-64
2023/02/07 03:45:27;;;;;;;17.75;4.40;;;2.50;77.10;;;;;;5047848;28;20072;-64
2023/02/07 03:47:53;;;;;;;7.35;3.75;;;2.50;77.10;;;;;;5067782;28;20029;-65
2023/02/07 03:50:18;;;;;;;12.77;3.92;;;2.40;77.10;;;;;;5050975;28;20029;-66
2023/02/07 03:52:44;;;;;;;7.40;4.28;;;2.50;77.20;;;;;;5048653;28;20413;-64
2023/02/07 03:55:10;;;;;;;7.35;4.55;;;2.40;77.00;;;;;;5061152;28;20115;-65
2023/02/07 03:57:35;;;;;;;6.18;3.53;;;2.40;76.90;;;;;;5045997;28;20021;-65
2023/02/07 04:00:02;;;;;;;6.55;4.57;;;2.40;76.90;;;;;;5050963;28;20025;-66
2023/02/07 04:02:28;;;;;;;10.40;5.32;;;2.40;77.00;;;;;;5050237;28;20514;-63
2023/02/07 04:04:53;;;;;;;5.93;3.85;;;2.40;76.90;;;;;;5056394;28;20033;-64
2023/02/07 04:07:19;;;;;;;7.85;4.40;;;2.30;76.90;;;;;;5044989;28;20110;-63
2023/02/07 04:09:45;;;;;;;6.18;4.22;;;2.30;76.90;;;;;;5051129;28;20029;-64
2023/02/07 04:12:11;;;;;;;9.85;4.13;;;2.30;76.90;;;;;;5040425;28;20036;-64
2023/02/07 04:14:36;;;;;;;7.07;4.63;;;2.30;76.80;;;;;;5051124;28;20017;-64
2023/02/07 04:17:02;;;;;;;9.07;4.65;;;2.30;76.80;;;;;;5048528;28;20057;-63
2023/02/07 04:19:28;;;;;;;11.48;5.57;;;2.30;76.80;;;;;;5051128;28;20096;-64
2023/02/07 04:21:53;;;;;;;7.30;4.20;;;2.30;76.70;;;;;;5044229;28;20037;-64
2023/02/07 04:24:19;;;;;;;5.40;3.45;;;2.20;76.70;;;;;;5052567;28;20033;-64
2023/02/07 04:26:45;;;;;;;8.93;4.53;;;2.20;76.70;;;;;;5050253;28;20029;-64
2023/02/07 04:29:10;;;;;;;11.38;5.20;;;2.20;76.70;;;;;;5060035;28;20425;-65
2023/02/07 04:31:36;;;;;;;6.28;4.40;;;2.20;76.70;;;;;;5045482;28;20473;-64
2023/02/07 04:34:02;;;;;;;10.35;5.00;;;2.20;76.70;;;;;;5055544;28;20077;-64
2023/02/07 04:36:29;;;;;;;11.18;5.00;;;2.20;76.70;;;;;;5049154;28;20033;-64
2023/02/07 04:38:55;;;;;;;12.40;5.68;;;2.20;76.80;;;;;;5045477;28;20424;-65
2023/02/07 04:41:20;;;;;;;7.63;4.88;;;2.10;76.70;;;;;;5046070;28;20056;-64
2023/02/07 04:43:46;;;;;;;8.05;4.72;;;2.10;76.70;;;;;;5042970;28;20037;-63
2023/02/07 04:46:12;;;;;;;8.38;4.43;;;2.10;76.80;;;;;;5045939;28;20577;-63
2023/02/07 04:48:38;;;;;;;6.25;3.95;;;2.10;76.80;;;;;;5047692;28;20021;-64
2023/02/07 04:51:05;;;;;;;11.05;5.57;;;2.10;76.70;;;;;;5047689;28;20029;-64
2023/02/07 04:53:31;;;;;;;9.77;4.65;;;2.10;76.60;;;;;;5045492;28;20047;-64
2023/02/07 04:55:56;;;;;;;7.78;4.20;;;2.00;76.70;;;;;;5050660;28;20025;-64
2023/02/07 04:58:22;;;;;;;9.32;5.03;;;2.00;76.70;;;;;;5045216;28;20193;-63
2023/02/07 05:00:48;;;;;;;6.97;4.60;;;2.00;76.60;;;;;;5047203;28;20033;-65
2023/02/07 05:03:14;;;;;;;6.20;4.18;;;2.00;76.60;;;;;;5049220;28;20029;-65
2023/02/07 05:05:42;;;;;;;6.75;4.57;;;2.00;76.60;;;;;;5047880;28;20072;-64
2023/02/07 05:08:08;;;;;;;7.72;4.53;;;2.00;76.60;;;;;;5045453;28;20036;-62
2023/02/07 05:10:34;;;;;;;6.25;3.75;;;1.90;76.60;;;;;;5047974;28;20021;-62
2023/02/07 05:13:00;;;;;;;5.80;3.95;;;1.90;76.60;;;;;;5044901;28;20622;-65
2023/02/07 05:15:26;;;;;;;8.50;4.20;;;1.90;76.60;;;;;;5044964;28;20033;-67
2023/02/07 05:17:52;;;;;;;6.38;4.13;;;1.90;76.60;;;;;;5030238;28;20075;-64
2023/02/07 05:20:20;;;;;;;8.00;4.18;;;1.90;76.50;;;;;;5041382;28;20032;-65
2023/02/07 05:22:50;;;;;;;7.80;3.90;;;1.90;76.50;;;;;;5046800;28;20476;-65
2023/02/07 05:25:16;;;;;;;12.40;5.13;;;1.80;76.60;;;;;;5061416;28;20030;-67
2023/02/07 05:27:41;;;;;;;6.07;3.85;;;1.80;76.60;;;;;;5076599;28;20106;-64
2023/02/07 05:30:08;;;;;;;7.25;4.32;;;1.80;76.50;;;;;;5041541;28;20033;-65
2023/02/07 05:35:17;;;;;;;7.35;4.18;;;1.80;76.50;;;;;;5041508;28;20120;-62
2023/02/07 05:37:43;;;;;;;10.90;4.78;;;1.80;76.40;;;;;;5048768;28;20100;-63
2023/02/07 05:40:11;;;;;;;9.73;4.50;;;1.80;76.30;;;;;;5046665;28;20086;-63
2023/02/07 05:42:37;;;;;;;9.98;4.43;;;1.80;77.00;;;;;;5048360;28;20364;-66
2023/02/07 05:45:04;;;;;;;12.52;4.47;;;1.70;76.40;;;;;;5047353;28;20382;-65
2023/02/07 05:47:30;;;;;;;9.55;4.70;;;1.70;76.50;;;;;;5044543;28;20100;-66
2023/02/07 05:49:55;;;;;;;9.70;5.25;;;1.70;76.50;;;;;;5049735;28;20037;-66
2023/02/07 05:52:21;;;;;;;8.25;4.95;;;1.70;76.50;;;;;;5047936;28;20400;-66
2023/02/07 05:54:46;;;;;;;7.38;4.13;;;1.70;76.50;;;;;;5046294;28;20456;-66
2023/02/07 05:57:12;;;;;;;6.88;4.05;;;1.60;76.40;;;;;;5041958;28;20061;-65
2023/02/07 05:59:38;;;;;;;7.78;4.72;;;1.60;76.50;;;;;;5047170;28;20499;-67
2023/02/07 06:02:03;;;;;;;7.47;4.60;;;1.60;76.40;;;;;;5043867;28;20059;-67
2023/02/07 06:04:29;;;;;;;8.45;4.20;;;1.60;76.30;;;;;;5047097;28;20463;-67
2023/02/07 06:06:55;;;;;;;6.80;4.15;;;1.60;76.30;;;;;;5041298;28;20041;-67
2023/02/07 06:09:21;;;;;;;8.27;5.43;;;1.60;76.20;;;;;;5047198;28;20525;-65
2023/02/07 06:11:47;;;;;;;9.93;4.45;;;1.60;76.10;;;;;;5047293;28;20032;-65
2023/02/07 06:14:12;;;;;;;6.47;4.05;;;1.50;76.00;;;;;;5073679;28;20021;-67
2023/02/07 06:16:38;;;;;;;9.27;4.90;;;1.50;76.10;;;;;;5042958;28;20045;-68
2023/02/07 06:19:04;;;;;;;9.98;5.40;;;1.50;76.20;;;;;;5045001;28;20144;-67
2023/02/07 06:21:30;;;;;;;10.25;4.75;;;1.50;76.10;;;;;;5044729;28;20499;-68
2023/02/07 06:23:55;;;;;;;8.38;5.07;;;1.50;76.10;;;;;;5040081;28;20038;-68
2023/02/07 06:26:21;;;;;;;8.07;5.22;;;1.40;76.10;;;;;;5046790;28;20043;-67
2023/02/07 06:28:47;;;;;;;7.88;4.80;;;1.40;76.00;;;;;;5045780;28;20103;-67
2023/02/07 06:31:13;;;;;;;7.50;4.07;;;1.40;76.50;;;;;;5047692;28;20395;-67
2023/02/07 06:33:38;;;;;;;7.93;4.97;;;1.40;75.90;;;;;;5044930;28;20025;-68
2023/02/07 06:36:04;;;;;;;5.28;3.95;;;1.30;75.90;;;;;;5030635;28;20057;-68
2023/02/07 06:38:30;;;;;;;5.40;4.20;;;1.30;75.80;;;;;;5044043;28;20043;-68
2023/02/07 06:40:56;;;;;;;8.00;4.88;;;1.30;75.80;;;;;;5045968;28;20036;-66
2023/02/07 06:43:21;;;;;;;6.30;3.95;;;1.30;76.40;;;;;;5046756;28;20498;-67
2023/02/07 06:45:47;;;;;;;6.88;4.28;;;1.20;75.80;;;;;;5069377;28;20543;-68
2023/02/07 06:48:13;;;;;;;6.32;4.57;;;1.30;75.90;;;;;;5042674;28;20029;-68
2023/02/07 06:50:39;;;;;;;9.63;4.68;;;1.20;75.80;;;;;;5043166;28;20090;-68
2023/02/07 06:53:04;;;;;;;6.18;3.65;;;1.20;75.80;;;;;;5061771;28;20028;-65
2023/02/07 06:55:38;;;;;;;12.23;4.20;;;1.20;75.90;;;;;;5067442;28;20040;-65
2023/02/07 06:58:05;;;;;;;5.38;3.80;;;1.20;75.80;;;;;;5046099;28;20029;-65
2023/02/07 07:00:31;;;;;;;9.23;4.60;;;1.20;75.80;;;;;;5050599;28;20036;-65
2023/02/07 07:02:58;;;;;;;12.38;5.90;;;1.20;75.70;;;;;;5046507;28;20375;-63
2023/02/07 07:05:25;;;;;;;6.43;4.28;;;1.10;75.80;;;;;;5050700;28;20017;-63
2023/02/07 07:07:51;;;;;;;11.70;4.93;;;1.10;75.80;;;;;;5042522;28;20532;-65
2023/02/07 07:10:16;;;;;;;8.20;4.28;;;1.10;75.80;;;;;;5044575;28;20029;-63
2023/02/07 07:12:42;;;;;;;8.18;4.03;;;1.10;75.80;;;;;;5047058;28;20087;-63
2023/02/07 07:15:08;;;;;;;5.60;4.05;;;1.10;75.80;;;;;;5058332;28;20032;-63
2023/02/07 07:17:34;;;;;;;5.82;3.70;;;1.10;75.80;;;;;;5049596;28;20064;-64
2023/02/07 07:19:59;;;;;;;5.47;3.90;;;1.10;75.80;;;;;;5053092;28;20045;-63
2023/02/07 07:22:25;;;;;;;7.10;4.85;;;1.10;75.70;;;;;;5052641;28;20025;-65
2023/02/07 07:24:51;;;;;;;10.27;4.60;;;1.10;75.80;;;;;;5051089;28;20495;-65
2023/02/07 07:27:17;;;;;;;5.72;4.55;;;1.10;75.80;;;;;;5049193;28;20116;-65
2023/02/07 07:29:43;;;;;;;11.85;5.13;;;1.10;75.80;;;;;;5050351;28;20458;-64
2023/02/07 07:32:10;;;;;;;8.68;5.20;;;1.10;75.80;;;;;;5052348;28;20104;-65
2023/02/07 07:34:36;;;;;;;9.43;5.18;;;1.10;75.80;;;;;;5048628;28;20107;-62
2023/02/07 07:37:02;;;;;;;8.85;3.92;;;1.10;75.80;;;;;;5052706;28;20872;-63
2023/02/07 07:39:28;;;;;;;9.07;4.65;;;1.10;75.70;;;;;;5045229;28;20116;-62
2023/02/07 07:41:54;;;;;;;8.30;4.45;;;1.10;75.70;;;;;;5046510;28;20033;-62
2023/02/07 07:44:19;;;;;;;6.53;4.63;;;1.20;75.70;;;;;;5043459;28;20075;-63
2023/02/07 07:46:45;;;;;;;9.93;5.43;;;1.20;75.70;;;;;;5047079;28;20033;-63
2023/02/07 07:49:11;;;;;;;10.23;4.70;;;1.20;75.60;;;;;;5052261;28;20053;-66
2023/02/07 07:51:36;;;;;;;10.10;5.22;;;1.20;75.60;;;;;;5046861;28;20427;-63
2023/02/07 07:54:02;;;;;;;4.15;3.58;;;1.20;75.60;;;;;;5064055;28;20469;-64
2023/02/07 07:56:28;;;;;;;11.23;5.78;;;1.20;75.70;;;;;;5047478;28;20029;-64
2023/02/07 07:58:54;;;;;;;10.27;5.00;;;1.20;75.70;;;;;;5044165;28;20091;-67
2023/02/07 08:01:20;;;;;;;11.93;5.50;;;1.20;75.80;;;;;;5053459;28;20025;-66
2023/02/07 08:03:46;;;;;;;8.98;5.25;;;1.20;75.80;;;;;;5052234;28;20028;-67
2023/02/07 08:06:12;;;;;;;6.95;5.35;;;1.20;75.80;;;;;;5050631;28;20364;-66
2023/02/07 08:08:38;;;;;;;6.75;5.53;;;1.30;75.90;;;;;;5054013;28;20021;-66
2023/02/07 08:11:09;;;;;;;8.77;5.63;;;1.30;75.90;;;;;;5049240;28;20020;-65
2023/02/07 08:13:35;;;;;;;8.38;5.95;;;1.40;76.00;;;;;;5045697;28;20036;-65
2023/02/07 08:16:02;;;;;;;8.10;6.07;;;1.50;76.10;;;;;;5049785;28;20638;-62
2023/02/07 08:18:28;;;;;;;10.73;6.32;;;1.50;76.20;;;;;;5074484;28;20065;-62
2023/02/07 08:20:54;;;;;;;9.48;5.05;;;1.60;76.30;;;;;;5047992;28;20028;-63
2023/02/07 08:23:21;;;;;;;9.27;6.38;;;1.70;76.40;;;;;;5045675;28;20053;-64
2023/02/07 08:25:48;;;;;;;16.90;6.07;;;1.70;76.40;;;;;;5042646;28;20041;-65
2023/02/07 08:28:15;;;;;;;10.00;5.68;;;1.80;76.60;;;;;;5047304;28;20017;-62
2023/02/07 08:30:41;;;;;;;9.90;6.38;;;1.80;76.70;;;;;;5049210;28;20032;-62
2023/02/07 08:33:07;;;;;;;9.07;5.97;;;1.80;76.90;;;;;;5042885;28;20026;-63
2023/02/07 08:35:32;;;;;;;11.07;6.85;;;1.90;77.00;;;;;;5047091;28;20133;-63
2023/02/07 08:37:58;;;;;;;11.63;6.20;;;2.00;77.10;;;;;;5039287;28;20112;-64
2023/02/07 08:40:25;;;;;;;11.45;6.70;;;2.00;77.10;;;;;;5037689;28;20024;-60
2023/02/07 08:42:51;;;;;;;10.60;6.43;;;2.10;77.30;;;;;;5044407;28;20160;-61
2023/02/07 08:45:17;;;;;;;10.38;6.38;;;2.20;77.30;;;;;;5048214;28;20116;-62
2023/02/07 08:47:46;;;;;;;12.80;6.75;;;2.20;77.40;;;;;;5043580;28;20037;-63
2023/02/07 08:50:16;;;;;;;10.35;6.15;;;2.30;77.50;;;;;;5046964;28;20033;-61
2023/02/07 08:52:42;;;;;;;7.32;5.30;;;2.40;77.50;;;;;;5048837;28;20482;-60
2023/02/07 08:55:08;;;;;;;10.65;6.07;;;2.50;77.50;;;;;;5048022;28;20109;-61
2023/02/07 08:57:34;;;;;;;12.07;6.30;;;2.60;77.50;;;;;;5046375;28;20116;-61
2023/02/07 09:00:00;;;;;;;11.30;6.13;;;2.60;77.40;;;;;;5048162;28;20025;-62
2023/02/07 09:02:26;;;;;;;11.52;5.90;;;2.70;77.40;;;;;;5046606;28;20035;-63
2023/02/07 09:04:52;;;;;;;11.20;6.65;;;2.70;77.40;;;;;;5044399;28;20104;-63
2023/02/07 09:07:18;;;;;;;10.68;6.07;;;2.80;77.30;;;;;;5040929;28;20032;-63
2023/02/07 09:09:45;;;;;;;8.57;5.53;;;2.90;77.20;;;;;;5040635;28;20029;-62
2023/02/07 09:12:11;;;;;;;12.95;6.22;;;3.10;77.20;;;;;;5041439;28;20136;-62
2023/02/07 09:14:38;;;;;;;18.75;5.95;;;3.20;77.10;;;;;;5043929;28;20040;-61
2023/02/07 09:17:05;;;;;;;13.13;6.22;;;3.30;77.00;;;;;;5038009;28;20079;-63
2023/02/07 09:19:32;;;;;;;15.50;6.68;;;3.40;77.00;;;;;;5036820;28;20029;-63
2023/02/07 09:21:58;;;;;;;12.10;5.75;;;3.50;76.70;;;;;;5045832;28;20055;-62
2023/02/07 09:24:23;;;;;;;11.32;6.45;;;3.50;76.70;;;;;;5037312;28;20407;-63
2023/02/07 09:26:49;;;;;;;8.95;6.40;;;3.60;76.70;;;;;;5051150;28;20082;-62
2023/02/07 09:29:15;;;;;;;10.50;7.18;;;3.70;76.70;;;;;;5049030;28;20457;-63
2023/02/07 09:31:42;;;;;;;14.30;6.45;;;3.80;76.50;;;;;;5042417;28;20055;-62
2023/02/07 09:34:08;;;;;;;10.38;6.65;;;4.00;76.50;;;;;;5035615;28;20421;-62
2023/02/07 09:36:34;;;;;;;9.18;6.38;;;4.10;76.30;;;;;;5043051;28;20025;-62
2023/02/07 09:39:04;;;;;;;12.68;6.60;;;4.20;76.20;;;;;;5043089;28;20041;-62
2023/02/07 09:42:06;;;;;;;10.18;6.18;;;4.30;76.00;;;;;;5054943;28;20448;-62
2023/02/07 09:44:47;;;;;;;11.98;6.85;;;4.40;75.80;;;;;;5057020;28;20146;-62
2023/02/07 09:47:22;;;;;;;13.07;6.25;;;4.50;75.80;;;;;;5040065;28;20029;-62
2023/02/07 09:49:54;;;;;;;11.30;5.93;;;4.60;75.60;;;;;;5041618;28;20472;-61
2023/02/07 09:52:26;;;;;;;7.82;5.45;;;4.70;75.40;;;;;;5045246;28;20087;-61
2023/02/07 09:54:54;;;;;;;14.57;6.90;;;4.80;75.20;;;;;;5044786;28;20033;-61
2023/02/07 09:57:36;;;;;;;11.25;6.60;;;4.90;75.20;;;;;;5043696;28;20037;-62
2023/02/07 10:00:08;;;;;;;18.60;6.25;;;5.00;74.90;;;;;;5042036;28;20056;-61
2023/02/07 10:03:04;;;;;;;7.88;5.45;;;5.10;74.60;;;;;;5043656;28;20026;-62
2023/02/07 10:05:53;;;;;;;8.52;5.68;;;5.20;73.90;;;;;;5039894;28;20037;-61
2023/02/07 10:08:19;;;;;;;8.98;5.50;;;5.20;73.80;;;;;;5045190;28;20541;-62
2023/02/07 10:11:19;;;;;;;8.32;5.03;;;5.20;74.00;;;;;;5044727;28;20088;-61
2023/02/07 10:14:16;;;;;;;9.45;5.28;;;5.20;73.70;;;;;;5044823;28;20030;-62
2023/02/07 10:17:04;;;;;;;7.47;5.38;;;5.20;73.50;;;;;;5055868;28;20518;-62
2023/02/07 10:19:33;;;;;;;7.10;4.88;;;5.20;73.00;;;;;;5044114;28;20033;-62
2023/02/07 10:22:22;;;;;;;8.80;4.47;;;5.20;73.20;;;;;;5038560;28;20086;-62
2023/02/07 10:25:20;;;;;;;7.18;4.97;;;5.40;73.10;;;;;;5044564;28;20077;-62
2023/02/07 10:27:54;;;;;;;11.52;5.85;;;5.50;72.90;;;;;;5046211;28;20082;-61
2023/02/07 10:30:34;;;;;;;9.02;5.47;;;5.70;72.50;;;;;;5043172;28;20040;-63
2023/02/07 10:33:18;;;;;;;6.53;5.00;;;5.90;72.10;;;;;;5040393;28;20055;-62
2023/02/07 10:35:46;;;;;;;9.98;5.55;;;6.00;71.90;;;;;;5068769;28;20465;-62
2023/02/07 10:38:39;;;;;;;6.97;5.28;;;6.10;71.30;;;;;;5041950;28;20610;-61
2023/02/07 10:41:38;;;;;;;8.60;5.38;;;6.30;71.10;;;;;;5053088;28;20431;-62
2023/02/07 10:44:11;;;;;;;6.82;4.47;;;6.50;70.80;;;;;;5035504;28;20033;-61
2023/02/07 10:46:39;;;;;;;5.40;4.15;;;6.60;70.30;;;;;;5043615;28;20051;-62
2023/02/07 10:49:05;;;;;;;7.10;4.45;;;6.70;69.90;;;;;;5043318;28;20042;-61
2023/02/07 10:51:37;;;;;;;7.55;3.67;;;6.80;69.50;;;;;;5044588;28;20111;-61
2023/02/07 10:54:10;;;;;;;6.10;4.35;;;6.90;69.00;;;;;;5046653;28;20016;-61
2023/02/07 10:56:40;;;;;;;;;;;7.10;68.70;;;;;;5042990;28;20060;-61
2023/02/07 10:59:26;;;;;;;3.83;3.40;;;7.30;68.40;;;;;;5047616;28;19917;-61
2023/02/07 11:01:53;;;;;;;8.88;4.18;;;7.30;67.00;;;;;;5041817;28;20044;-61
2023/02/07 11:04:36;;;;;;;6.90;4.43;;;7.60;66.70;;;;;;5038934;28;20499;-62
2023/02/07 11:07:05;;;;;;;10.75;4.80;;;7.80;66.30;;;;;;5041780;28;20124;-62
2023/02/07 11:09:31;;;;;;;6.28;3.67;;;7.90;65.40;;;;;;5039683;28;20029;-62
2023/02/07 11:11:57;;;;;;;7.20;3.55;;;8.10;64.80;;;;;;5040691;28;20465;-62
2023/02/07 11:14:27;;;;;;;5.45;3.13;;;8.20;64.20;;;;;;5048231;28;20029;-62
2023/02/07 11:16:55;;;;;;;5.25;2.47;;;8.20;63.80;;;;;;5036181;28;20051;-62
2023/02/07 11:19:29;;;;;;;3.75;2.50;;;8.30;63.60;;;;;;5031300;28;20064;-62
2023/02/07 11:22:05;;;;;;;5.70;3.13;;;8.30;63.20;;;;;;5041562;28;21676;-62
2023/02/07 11:24:34;;;;;;;5.50;2.70;;;8.60;62.50;;;;;;5042471;28;20044;-62
2023/02/07 11:27:11;;;;;;;7.97;2.65;;;8.80;62.20;;;;;;5045110;28;20040;-62
2023/02/07 11:29:57;;;;;;;4.07;2.72;;;9.00;61.30;;;;;;5040445;28;20032;-61
2023/02/07 11:32:25;;;;;;;3.15;2.40;;;9.10;61.20;;;;;;5037771;28;20382;-61
2023/02/07 11:35:01;;;;;;;3.78;2.08;;;9.30;60.80;;;;;;5045123;28;20021;-61
2023/02/07 11:37:35;;;;;;;5.97;2.28;;;9.40;59.90;;;;;;5036934;28;20080;-61
2023/02/07 11:40:25;;;;;;;3.72;2.42;;;9.40;58.90;;;;;;5039725;28;20103;-61
2023/02/07 11:43:02;;;;;;;2.90;2.25;;;9.60;58.90;;;;;;5038081;28;20033;-62
2023/02/07 11:45:30;;;;;;;3.03;2.00;;;9.80;58.80;;;;;;5037979;28;20084;-62
2023/02/07 11:47:57;;;;;;;3.75;2.33;;;10.00;58.40;;;;;;5046073;28;20409;-62
2023/02/07 11:50:39;;;;;;;3.78;2.35;;;10.20;57.80;;;;;;5046929;28;20391;-62
2023/02/07 11:53:06;;;;;;;2.83;1.95;;;10.90;56.10;;;;;;5040755;28;20038;-62
2023/02/07 11:55:35;;;;;;;4.22;2.28;;;11.90;54.70;;;;;;5051549;28;20029;-61
2023/02/07 11:58:19;;;;;;;4.30;2.55;;;13.40;52.10;;;;;;5051993;28;20033;-62
2023/02/07 12:00:45;;;;;;;4.13;1.83;;;15.20;48.20;;;;;;5045310;28;20029;-62
2023/02/07 12:03:26;;;;;;;3.17;1.70;;;17.30;43.40;;;;;;5040940;28;20032;-60
2023/02/07 12:05:59;;;;;;;4.88;2.25;;;18.70;40.40;;;;;;5038705;28;20468;-61
2023/02/07 12:08:29;;;;;;;2.17;1.42;;;20.30;38.70;;;;;;5040594;28;20032;-63
2023/02/07 12:11:09;;;;;;;2.80;1.50;;;21.50;36.40;;;;;;5041892;28;20029;-62
2023/02/07 12:13:41;;;;;;;2.50;1.67;;;22.40;35.20;;;;;;5037874;28;20075;-62
2023/02/07 12:16:10;;;;;;;3.20;2.45;;;23.10;33.40;;;;;;5044083;28;20033;-62
2023/02/07 12:18:45;;;;;;;2.15;1.60;;;23.70;31.80;;;;;;5044291;28;20063;-61
2023/02/07 12:21:27;;;;;;;2.15;1.92;;;24.10;31.10;;;;;;5043448;28;20032;-61
2023/02/07 12:24:16;;;;;;;;;;;24.80;30.50;;;;;;5044965;28;20119;-61
2023/02/07 12:27:07;;;;;;;3.17;2.00;;;25.20;29.00;;;;;;5036977;28;19917;-62
2023/02/07 12:30:23;;;;;;;2.03;1.50;;;25.60;29.80;;;;;;5037289;28;20036;-62
2023/02/07 12:33:16;;;;;;;3.80;1.48;;;25.80;28.70;;;;;;4997112;28;20031;-62
2023/02/07 12:36:10;;;;;;;3.38;1.98;;;26.30;28.90;;;;;;5044898;28;20032;-62
2023/02/07 12:39:00;;;;;;;3.20;1.80;;;26.20;28.80;;;;;;5040485;28;20025;-61
2023/02/07 12:41:47;;;;;;;2.97;1.83;;;26.10;28.50;;;;;;5054357;28;20565;-61
2023/02/07 12:44:36;;;;;;;3.45;1.73;;;26.40;28.60;;;;;;5051266;28;20481;-62
2023/02/07 12:47:28;;;;;;;2.55;1.50;;;26.70;28.00;;;;;;5029804;28;20060;-62
2023/02/07 12:50:07;;;;;;;3.45;1.50;;;27.00;28.20;;;;;;5046368;28;20019;-61
2023/02/07 12:52:33;;;;;;;2.42;2.15;;;27.30;27.80;;;;;;5041523;28;20044;-61
2023/02/07 12:55:27;;;;;;;6.50;1.95;;;27.50;27.70;;;;;;5042198;28;20029;-62
2023/02/07 12:57:53;;;;;;;2.10;1.85;;;27.60;27.60;;;;;;5042492;28;20090;-62
2023/02/07 13:00:27;;;;;;;4.28;2.20;;;27.70;27.70;;;;;;5039624;28;20504;-62
2023/02/07 13:03:18;;;;;;;2.47;1.45;;;27.90;27.30;;;;;;5041863;28;20030;-62
2023/02/07 13:06:04;;;;;;;2.07;1.70;;;27.80;26.80;;;;;;5072141;28;20037;-62
2023/02/07 13:08:29;;;;;;;2.75;1.50;;;27.50;27.10;;;;;;5043088;28;20373;-62
2023/02/07 13:10:59;;;;;;;1.80;1.50;;;27.40;27.60;;;;;;5038747;28;20662;-62
2023/02/07 13:13:43;;;;;;;3.72;1.60;;;27.30;27.70;;;;;;5041824;28;20029;-62
2023/02/07 13:16:58;;;;;;;2.20;1.80;;;27.00;27.70;;;;;;5036177;28;20038;-62